Johnsonville, South Dakota
Current Conditions -  °F | °C
As of 9:54 PM on Saturday 24 Jan 2015 (Local Time) from KCNB Reporting Station
Overcast Overcast  
Wind Chill: 23°   Ceiling: 600
Heat Index: 32°   Visibility: 10mi
Dew Point: 32°   Wind: 13mph
Humidity: 99%   Direction: 350°N
Pressure: 29.65"   Gusts: 18mph
Location:  44.5872°N, 96.7638°W
Report Text: KCNB 250354Z AUTO 35011G16KT 10SM BKN006 OVC010 00/00 A2965 RMK AO2 T00020000
Loading
Personal Weather Stations






























Interactive Weather Map New forecast layout! Learn more

10-Day Weather Forecast

Advertisements
Track Severe Weather on mobile